sensor_id;sensor_type;location;lat;lon;timestamp;P1;durP1;ratioP1;P2;durP2;ratioP2
26478;SDS011;14163;-26.142;27.992;2023-03-01T15:25:56;2.60;;;2.40;;
26478;SDS011;14163;-26.142;27.992;2023-03-01T15:28:28;2.70;;;2.50;;
26478;SDS011;14163;-26.142;27.992;2023-03-01T15:31:18;2.43;;;2.33;;
26478;SDS011;14163;-26.142;27.992;2023-03-01T15:33:49;3.40;;;2.80;;
26478;SDS011;14163;-26.142;27.992;2023-03-01T15:36:33;2.33;;;2.23;;
26478;SDS011;14163;-26.142;27.992;2023-03-01T15:42:03;2.13;;;2.03;;
26478;SDS011;14163;-26.142;27.992;2023-03-01T15:44:35;2.43;;;2.23;;
26478;SDS011;14163;-26.142;27.992;2023-03-01T15:47:06;3.33;;;2.07;;
26478;SDS011;14163;-26.142;27.992;2023-03-01T15:49:52;2.30;;;2.20;;
26478;SDS011;14163;-26.142;27.992;2023-03-01T15:52:22;3.37;;;1.80;;
26478;SDS011;14163;-26.142;27.992;2023-03-01T15:54:57;2.13;;;2.03;;
26478;SDS011;14163;-26.142;27.992;2023-03-01T15:57:33;2.33;;;2.20;;
26478;SDS011;14163;-26.142;27.992;2023-03-01T16:00:02;2.70;;;2.60;;
26478;SDS011;14163;-26.142;27.992;2023-03-01T18:05:10;6.33;;;5.73;;
26478;SDS011;14163;-26.142;27.992;2023-03-01T18:07:39;6.10;;;5.33;;
26478;SDS011;14163;-26.142;27.992;2023-03-01T18:10:09;6.80;;;6.30;;
26478;SDS011;14163;-26.142;27.992;2023-03-01T18:12:38;9.67;;;5.53;;
26478;SDS011;14163;-26.142;27.992;2023-03-01T18:15:08;6.60;;;6.00;;
26478;SDS011;14163;-26.142;27.992;2023-03-01T18:17:38;6.60;;;6.00;;
26478;SDS011;14163;-26.142;27.992;2023-03-01T18:20:07;8.60;;;5.90;;
26478;SDS011;14163;-26.142;27.992;2023-03-01T18:22:40;6.37;;;5.77;;
26478;SDS011;14163;-26.142;27.992;2023-03-01T18:25:09;6.43;;;5.73;;
26478;SDS011;14163;-26.142;27.992;2023-03-01T18:27:38;10.60;;;5.77;;
26478;SDS011;14163;-26.142;27.992;2023-03-01T18:30:08;9.70;;;6.47;;
26478;SDS011;14163;-26.142;27.992;2023-03-01T18:32:38;7.83;;;6.10;;
26478;SDS011;14163;-26.142;27.992;2023-03-01T18:35:11;7.70;;;6.57;;
26478;SDS011;14163;-26.142;27.992;2023-03-01T18:37:40;7.17;;;6.40;;
26478;SDS011;14163;-26.142;27.992;2023-03-01T18:40:10;10.00;;;7.17;;
26478;SDS011;14163;-26.142;27.992;2023-03-01T18:42:39;10.97;;;7.20;;
26478;SDS011;14163;-26.142;27.992;2023-03-01T18:45:08;9.10;;;6.83;;
26478;SDS011;14163;-26.142;27.992;2023-03-01T18:47:39;7.90;;;7.10;;
26478;SDS011;14163;-26.142;27.992;2023-03-01T18:50:08;9.33;;;8.13;;
26478;SDS011;14163;-26.142;27.992;2023-03-01T18:52:40;10.80;;;8.97;;
26478;SDS011;14163;-26.142;27.992;2023-03-01T18:55:09;12.23;;;8.90;;
26478;SDS011;14163;-26.142;27.992;2023-03-01T18:57:39;9.30;;;8.47;;
26478;SDS011;14163;-26.142;27.992;2023-03-01T19:00:08;10.77;;;8.90;;
26478;SDS011;14163;-26.142;27.992;2023-03-01T19:02:38;8.97;;;8.13;;
26478;SDS011;14163;-26.142;27.992;2023-03-01T19:05:08;9.97;;;8.00;;
26478;SDS011;14163;-26.142;27.992;2023-03-01T19:07:39;9.83;;;8.30;;
26478;SDS011;14163;-26.142;27.992;2023-03-01T19:10:08;8.93;;;8.03;;
26478;SDS011;14163;-26.142;27.992;2023-03-01T19:12:38;8.83;;;8.03;;
26478;SDS011;14163;-26.142;27.992;2023-03-01T19:15:08;11.30;;;8.10;;
26478;SDS011;14163;-26.142;27.992;2023-03-01T19:17:37;8.63;;;7.90;;
26478;SDS011;14163;-26.142;27.992;2023-03-01T19:20:07;9.23;;;8.27;;
26478;SDS011;14163;-26.142;27.992;2023-03-01T19:22:39;10.40;;;7.30;;
26478;SDS011;14163;-26.142;27.992;2023-03-01T19:25:08;10.13;;;8.30;;
26478;SDS011;14163;-26.142;27.992;2023-03-01T19:27:38;8.90;;;8.10;;
26478;SDS011;14163;-26.142;27.992;2023-03-01T19:30:08;9.33;;;7.53;;
26478;SDS011;14163;-26.142;27.992;2023-03-01T19:32:38;11.03;;;8.10;;
26478;SDS011;14163;-26.142;27.992;2023-03-01T19:35:07;8.90;;;8.10;;
26478;SDS011;14163;-26.142;27.992;2023-03-01T19:37:36;13.33;;;8.80;;
26478;SDS011;14163;-26.142;27.992;2023-03-01T19:40:08;8.50;;;7.10;;
26478;SDS011;14163;-26.142;27.992;2023-03-01T19:42:38;8.53;;;7.40;;
26478;SDS011;14163;-26.142;27.992;2023-03-01T19:45:07;8.97;;;7.33;;
26478;SDS011;14163;-26.142;27.992;2023-03-01T19:47:37;12.00;;;7.67;;
26478;SDS011;14163;-26.142;27.992;2023-03-01T19:50:06;8.17;;;6.67;;
26478;SDS011;14163;-26.142;27.992;2023-03-01T19:52:36;7.53;;;6.50;;
26478;SDS011;14163;-26.142;27.992;2023-03-01T19:55:08;8.87;;;6.73;;
26478;SDS011;14163;-26.142;27.992;2023-03-01T19:57:37;7.03;;;6.43;;
26478;SDS011;14163;-26.142;27.992;2023-03-01T20:00:07;9.17;;;7.30;;
26478;SDS011;14163;-26.142;27.992;2023-03-01T20:02:37;8.00;;;6.23;;
26478;SDS011;14163;-26.142;27.992;2023-03-01T20:05:06;11.07;;;6.87;;
26478;SDS011;14163;-26.142;27.992;2023-03-01T20:07:36;6.90;;;5.80;;
26478;SDS011;14163;-26.142;27.992;2023-03-01T20:10:07;6.80;;;6.20;;
26478;SDS011;14163;-26.142;27.992;2023-03-01T20:12:37;7.53;;;5.90;;
26478;SDS011;14163;-26.142;27.992;2023-03-01T20:15:07;13.07;;;6.10;;
26478;SDS011;14163;-26.142;27.992;2023-03-01T20:17:37;6.30;;;5.77;;
26478;SDS011;14163;-26.142;27.992;2023-03-01T20:20:06;11.83;;;5.10;;
26478;SDS011;14163;-26.142;27.992;2023-03-01T20:22:36;5.53;;;4.50;;
26478;SDS011;14163;-26.142;27.992;2023-03-01T20:25:08;5.20;;;4.70;;
26478;SDS011;14163;-26.142;27.992;2023-03-01T20:27:37;6.00;;;5.40;;
26478;SDS011;14163;-26.142;27.992;2023-03-01T20:30:07;4.50;;;4.10;;
26478;SDS011;14163;-26.142;27.992;2023-03-01T20:32:37;4.87;;;4.47;;
26478;SDS011;14163;-26.142;27.992;2023-03-01T20:35:07;4.93;;;4.00;;
26478;SDS011;14163;-26.142;27.992;2023-03-01T20:37:36;4.17;;;3.77;;
26478;SDS011;14163;-26.142;27.992;2023-03-01T20:40:08;4.10;;;3.90;;
26478;SDS011;14163;-26.142;27.992;2023-03-01T20:42:38;4.90;;;4.40;;
26478;SDS011;14163;-26.142;27.992;2023-03-01T20:45:07;3.73;;;3.50;;
26478;SDS011;14163;-26.142;27.992;2023-03-01T20:47:38;4.37;;;3.97;;
26478;SDS011;14163;-26.142;27.992;2023-03-01T20:50:08;6.17;;;4.30;;
26478;SDS011;14163;-26.142;27.992;2023-03-01T20:52:39;8.33;;;3.70;;
26478;SDS011;14163;-26.142;27.992;2023-03-01T20:55:09;4.40;;;3.80;;
26478;SDS011;14163;-26.142;27.992;2023-03-01T20:57:39;8.73;;;4.77;;
26478;SDS011;14163;-26.142;27.992;2023-03-01T21:00:09;4.53;;;3.90;;
26478;SDS011;14163;-26.142;27.992;2023-03-01T21:02:38;4.03;;;3.73;;
26478;SDS011;14163;-26.142;27.992;2023-03-01T21:05:08;4.83;;;3.90;;
26478;SDS011;14163;-26.142;27.992;2023-03-01T21:07:39;3.97;;;3.67;;
26478;SDS011;14163;-26.142;27.992;2023-03-01T21:10:10;5.67;;;4.30;;
26478;SDS011;14163;-26.142;27.992;2023-03-01T21:12:39;4.40;;;4.10;;
26478;SDS011;14163;-26.142;27.992;2023-03-01T21:15:09;5.33;;;3.87;;
26478;SDS011;14163;-26.142;27.992;2023-03-01T21:17:38;3.83;;;3.53;;
26478;SDS011;14163;-26.142;27.992;2023-03-01T21:20:08;5.90;;;4.30;;
26478;SDS011;14163;-26.142;27.992;2023-03-01T21:22:40;5.33;;;3.90;;
26478;SDS011;14163;-26.142;27.992;2023-03-01T21:25:09;5.40;;;4.20;;
26478;SDS011;14163;-26.142;27.992;2023-03-01T21:27:38;6.47;;;4.30;;
26478;SDS011;14163;-26.142;27.992;2023-03-01T21:30:07;5.90;;;4.43;;
26478;SDS011;14163;-26.142;27.992;2023-03-01T21:32:37;4.80;;;4.40;;
26478;SDS011;14163;-26.142;27.992;2023-03-01T21:35:07;5.83;;;5.33;;
26478;SDS011;14163;-26.142;27.992;2023-03-01T21:37:37;11.00;;;5.03;;
26478;SDS011;14163;-26.142;27.992;2023-03-01T21:40:08;9.67;;;4.93;;
26478;SDS011;14163;-26.142;27.992;2023-03-01T21:42:38;5.83;;;5.20;;
26478;SDS011;14163;-26.142;27.992;2023-03-01T21:45:09;7.83;;;5.10;;
26478;SDS011;14163;-26.142;27.992;2023-03-01T21:47:38;7.53;;;4.93;;
26478;SDS011;14163;-26.142;27.992;2023-03-01T21:50:08;8.20;;;4.70;;
26478;SDS011;14163;-26.142;27.992;2023-03-01T21:52:40;6.27;;;4.37;;
26478;SDS011;14163;-26.142;27.992;2023-03-01T21:55:09;8.00;;;5.30;;
26478;SDS011;14163;-26.142;27.992;2023-03-01T21:57:38;4.90;;;4.47;;
26478;SDS011;14163;-26.142;27.992;2023-03-01T22:00:09;9.80;;;5.30;;
26478;SDS011;14163;-26.142;27.992;2023-03-01T22:02:40;7.07;;;4.87;;
26478;SDS011;14163;-26.142;27.992;2023-03-01T22:05:09;5.50;;;5.00;;
26478;SDS011;14163;-26.142;27.992;2023-03-01T22:07:40;11.43;;;4.83;;
26478;SDS011;14163;-26.142;27.992;2023-03-01T22:10:10;7.30;;;5.00;;
26478;SDS011;14163;-26.142;27.992;2023-03-01T22:12:39;7.63;;;5.17;;
26478;SDS011;14163;-26.142;27.992;2023-03-01T22:15:08;8.90;;;5.10;;
26478;SDS011;14163;-26.142;27.992;2023-03-01T22:17:38;5.50;;;4.60;;
26478;SDS011;14163;-26.142;27.992;2023-03-01T22:20:08;8.47;;;6.43;;
26478;SDS011;14163;-26.142;27.992;2023-03-01T22:22:38;8.37;;;5.73;;
26478;SDS011;14163;-26.142;27.992;2023-03-01T22:25:09;9.50;;;5.77;;
26478;SDS011;14163;-26.142;27.992;2023-03-01T22:27:39;7.30;;;5.80;;
26478;SDS011;14163;-26.142;27.992;2023-03-01T22:30:09;8.73;;;6.23;;
26478;SDS011;14163;-26.142;27.992;2023-03-01T22:32:39;6.50;;;5.67;;
26478;SDS011;14163;-26.142;27.992;2023-03-01T22:35:09;10.63;;;7.57;;
26478;SDS011;14163;-26.142;27.992;2023-03-01T22:37:40;9.43;;;7.60;;
26478;SDS011;14163;-26.142;27.992;2023-03-01T22:40:09;11.40;;;7.90;;
26478;SDS011;14163;-26.142;27.992;2023-03-01T22:42:39;13.17;;;7.90;;
26478;SDS011;14163;-26.142;27.992;2023-03-01T22:45:08;11.73;;;8.03;;
26478;SDS011;14163;-26.142;27.992;2023-03-01T22:47:38;11.40;;;8.60;;
26478;SDS011;14163;-26.142;27.992;2023-03-01T22:50:07;11.00;;;8.83;;
26478;SDS011;14163;-26.142;27.992;2023-03-01T22:52:41;9.97;;;8.97;;
26478;SDS011;14163;-26.142;27.992;2023-03-01T22:55:10;9.90;;;8.30;;
26478;SDS011;14163;-26.142;27.992;2023-03-01T22:57:40;10.97;;;8.47;;
26478;SDS011;14163;-26.142;27.992;2023-03-01T23:00:09;9.73;;;8.73;;
26478;SDS011;14163;-26.142;27.992;2023-03-01T23:02:39;12.47;;;9.47;;
26478;SDS011;14163;-26.142;27.992;2023-03-01T23:05:08;13.03;;;9.47;;
26478;SDS011;14163;-26.142;27.992;2023-03-01T23:07:38;12.77;;;10.60;;
26478;SDS011;14163;-26.142;27.992;2023-03-01T23:10:09;12.93;;;10.80;;
26478;SDS011;14163;-26.142;27.992;2023-03-01T23:12:39;11.93;;;10.70;;
26478;SDS011;14163;-26.142;27.992;2023-03-01T23:15:09;12.47;;;11.37;;
26478;SDS011;14163;-26.142;27.992;2023-03-01T23:17:38;12.13;;;10.90;;
26478;SDS011;14163;-26.142;27.992;2023-03-01T23:20:08;13.53;;;12.23;;
26478;SDS011;14163;-26.142;27.992;2023-03-01T23:22:39;13.13;;;11.83;;
26478;SDS011;14163;-26.142;27.992;2023-03-01T23:25:10;13.87;;;12.47;;
26478;SDS011;14163;-26.142;27.992;2023-03-01T23:27:40;13.93;;;12.63;;
26478;SDS011;14163;-26.142;27.992;2023-03-01T23:30:10;15.73;;;14.23;;
26478;SDS011;14163;-26.142;27.992;2023-03-01T23:32:39;15.20;;;13.10;;
26478;SDS011;14163;-26.142;27.992;2023-03-01T23:35:09;15.20;;;13.77;;
26478;SDS011;14163;-26.142;27.992;2023-03-01T23:37:38;15.20;;;13.63;;
26478;SDS011;14163;-26.142;27.992;2023-03-01T23:40:08;17.80;;;14.80;;
26478;SDS011;14163;-26.142;27.992;2023-03-01T23:42:41;17.27;;;15.13;;
26478;SDS011;14163;-26.142;27.992;2023-03-01T23:45:11;15.23;;;13.70;;
26478;SDS011;14163;-26.142;27.992;2023-03-01T23:47:40;15.83;;;13.80;;
26478;SDS011;14163;-26.142;27.992;2023-03-01T23:50:10;14.63;;;13.33;;
26478;SDS011;14163;-26.142;27.992;2023-03-01T23:52:39;16.40;;;14.10;;
26478;SDS011;14163;-26.142;27.992;2023-03-01T23:55:08;14.80;;;13.00;;
26478;SDS011;14163;-26.142;27.992;2023-03-01T23:57:42;14.83;;;13.40;;
